createdAt,value
2022-08-20T00:00:30.555Z,12.13
2022-08-20T00:03:00.169Z,9.43
2022-08-20T00:05:31.601Z,8.93
2022-08-20T00:08:00.436Z,13.57
2022-08-20T00:10:28.941Z,7.70
2022-08-20T00:12:57.103Z,8.60
2022-08-20T00:15:28.440Z,5.30
2022-08-20T00:17:56.763Z,4.27
2022-08-20T00:20:29.429Z,5.63
2022-08-20T00:22:58.934Z,4.40
2022-08-20T00:25:28.395Z,4.97
2022-08-20T00:27:56.490Z,3.80
2022-08-20T00:30:24.939Z,4.70
2022-08-20T00:32:54.378Z,3.00
2022-08-20T00:35:24.408Z,2.50
2022-08-20T00:37:52.454Z,2.87
2022-08-20T00:40:24.548Z,3.60
2022-08-20T00:42:53.791Z,2.17
2022-08-20T00:45:22.104Z,2.10
2022-08-20T00:47:51.454Z,2.33
2022-08-20T00:50:22.030Z,1.97
2022-08-20T00:52:51.985Z,2.07
2022-08-20T00:55:22.083Z,2.60
2022-08-20T00:58:00.827Z,2.27
2022-08-20T01:00:32.582Z,1.97
2022-08-20T01:03:01.568Z,3.23
2022-08-20T01:05:30.057Z,1.57
2022-08-20T01:07:58.667Z,5.10
2022-08-20T01:10:29.860Z,1.53
2022-08-20T01:12:59.760Z,2.17
2022-08-20T01:15:31.206Z,2.07
2022-08-20T01:17:59.844Z,6.80
2022-08-20T01:20:29.674Z,3.87
2022-08-20T01:23:20.907Z,4.00
2022-08-20T01:25:53.158Z,4.40
2022-08-20T01:28:22.832Z,3.47
2022-08-20T01:30:50.768Z,6.43
2022-08-20T01:33:18.884Z,4.53
2022-08-20T01:35:46.875Z,2.67
2022-08-20T01:38:14.967Z,2.17
2022-08-20T01:41:16.107Z,3.43
2022-08-20T01:43:46.499Z,2.80
2022-08-20T01:46:17.235Z,2.30
2022-08-20T01:48:49.887Z,3.80
2022-08-20T01:51:20.234Z,2.13
2022-08-20T01:53:49.497Z,1.50
2022-08-20T01:56:18.737Z,1.73
2022-08-20T01:58:55.949Z,2.73
2022-08-20T02:01:26.202Z,1.97
2022-08-20T02:03:54.953Z,4.50
2022-08-20T02:06:25.529Z,2.93
2022-08-20T02:08:55.180Z,3.33
2022-08-20T02:11:23.417Z,1.93
2022-08-20T02:13:53.344Z,1.63
2022-08-20T02:16:22.760Z,2.00
2022-08-20T02:18:54.212Z,4.03
2022-08-20T02:21:22.605Z,2.80
2022-08-20T02:23:50.616Z,1.53
2022-08-20T02:26:19.290Z,3.17
2022-08-20T02:28:49.742Z,1.77
2022-08-20T02:31:19.181Z,1.40
2022-08-20T02:34:22.284Z,3.57
2022-08-20T02:36:36.395Z,2.30
2022-08-20T02:39:05.430Z,3.40
2022-08-20T02:41:35.837Z,2.83
2022-08-20T02:44:04.856Z,3.00
2022-08-20T02:46:34.514Z,2.13
2022-08-20T02:49:02.497Z,3.27
2022-08-20T02:51:30.799Z,2.33
2022-08-20T02:53:59.135Z,1.10
2022-08-20T02:56:27.379Z,1.73
2022-08-20T02:58:55.425Z,1.40
2022-08-20T03:01:23.636Z,1.30
2022-08-20T03:03:52.972Z,3.47
2022-08-20T03:06:22.064Z,2.27
2022-08-20T03:08:50.013Z,2.03
2022-08-20T03:11:18.167Z,2.03
2022-08-20T03:13:46.119Z,2.67
2022-08-20T03:16:14.107Z,1.57
2022-08-20T03:18:45.197Z,2.03
2022-08-20T03:21:14.734Z,2.57
2022-08-20T03:23:43.051Z,2.10
2022-08-20T03:26:12.134Z,2.23
2022-08-20T03:28:40.113Z,4.83
2022-08-20T03:31:08.371Z,3.83
2022-08-20T03:33:39.371Z,3.37
2022-08-20T03:36:27.675Z,2.37
2022-08-20T03:38:57.476Z,0.93
2022-08-20T03:41:25.494Z,7.40
2022-08-20T03:43:54.566Z,3.10
2022-08-20T03:46:24.145Z,5.70
2022-08-20T03:48:56.330Z,6.47
2022-08-20T03:51:30.647Z,3.07
2022-08-20T03:53:58.956Z,4.67
2022-08-20T03:56:27.028Z,3.47
2022-08-20T03:58:55.332Z,3.17
2022-08-20T04:01:45.030Z,1.53
2022-08-20T04:04:12.518Z,1.93
2022-08-20T04:06:42.407Z,3.07
2022-08-20T04:09:11.916Z,2.27
2022-08-20T04:11:40.407Z,2.37
2022-08-20T04:14:09.156Z,1.93
2022-08-20T04:16:37.752Z,1.80
2022-08-20T04:19:06.244Z,2.73
2022-08-20T04:21:34.772Z,2.23
2022-08-20T04:24:05.696Z,2.00
2022-08-20T04:26:36.298Z,1.20
2022-08-20T04:29:04.399Z,3.03
2022-08-20T04:31:34.169Z,2.70
2022-08-20T04:34:03.096Z,2.67
2022-08-20T04:36:31.141Z,4.07
2022-08-20T04:38:59.093Z,1.90
2022-08-20T04:41:28.447Z,1.70
2022-08-20T04:43:58.073Z,2.00
2022-08-20T04:46:27.502Z,5.23
2022-08-20T04:48:55.491Z,2.53
2022-08-20T04:51:24.386Z,2.40
2022-08-20T04:53:53.653Z,4.03
2022-08-20T04:56:24.283Z,2.30
2022-08-20T04:58:54.386Z,2.63
2022-08-20T05:01:23.667Z,4.23
2022-08-20T05:03:54.764Z,1.77
2022-08-20T05:06:24.645Z,3.10
2022-08-20T05:08:53.348Z,3.60
2022-08-20T05:11:32.903Z,2.40
2022-08-20T05:14:05.880Z,1.13
2022-08-20T05:16:38.638Z,3.50
2022-08-20T05:19:08.782Z,4.43
2022-08-20T05:21:37.145Z,1.70
2022-08-20T05:24:05.683Z,3.83
2022-08-20T05:26:34.325Z,2.70
2022-08-20T05:29:05.069Z,2.20
2022-08-20T05:31:34.877Z,1.67
2022-08-20T05:34:03.226Z,1.93
2022-08-20T05:36:31.213Z,2.03
2022-08-20T05:38:59.257Z,1.77
2022-08-20T05:41:30.067Z,2.30
2022-08-20T05:44:01.073Z,2.77
2022-08-20T05:46:29.134Z,2.20
2022-08-20T05:48:59.347Z,4.40
2022-08-20T05:51:27.861Z,5.63
2022-08-20T05:53:57.981Z,4.43
2022-08-20T05:56:30.387Z,5.37
2022-08-20T05:58:59.627Z,5.07
2022-08-20T06:01:27.664Z,5.67
2022-08-20T06:04:13.104Z,4.10
2022-08-20T06:06:45.762Z,4.77
2022-08-20T06:09:15.046Z,3.73
2022-08-20T06:11:42.962Z,4.67
2022-08-20T06:14:10.910Z,3.37
2022-08-20T06:16:38.850Z,6.00
2022-08-20T06:19:06.918Z,3.10
2022-08-20T06:21:39.811Z,3.97
2022-08-20T06:24:09.337Z,2.57
2022-08-20T06:26:37.696Z,4.73
2022-08-20T06:29:06.011Z,1.40
2022-08-20T06:31:34.966Z,2.67
2022-08-20T06:34:02.980Z,3.17
2022-08-20T06:36:30.936Z,4.00
2022-08-20T06:38:58.883Z,2.23
2022-08-20T06:41:36.267Z,3.73
2022-08-20T06:44:05.504Z,4.27
2022-08-20T06:46:33.649Z,2.07
2022-08-20T06:49:01.639Z,2.47
2022-08-20T06:51:29.582Z,3.13
2022-08-20T06:53:57.612Z,2.50
2022-08-20T06:56:26.962Z,1.83
2022-08-20T06:58:54.891Z,2.93
2022-08-20T07:01:22.914Z,2.43
2022-08-20T07:03:54.553Z,1.80
2022-08-20T07:06:25.641Z,4.97
2022-08-20T07:08:53.938Z,1.93
2022-08-20T07:11:27.296Z,1.47
2022-08-20T07:13:58.218Z,5.17
2022-08-20T07:16:26.445Z,2.50
2022-08-20T07:18:54.650Z,4.80
2022-08-20T07:21:22.583Z,2.80
2022-08-20T07:23:50.527Z,1.90
2022-08-20T07:26:18.567Z,4.00
2022-08-20T07:28:46.496Z,3.23
2022-08-20T07:31:34.877Z,1.37
2022-08-20T07:34:03.428Z,1.57
2022-08-20T07:36:31.535Z,2.47
2022-08-20T07:38:59.562Z,1.97
2022-08-20T07:41:34.261Z,2.50
2022-08-20T07:44:02.725Z,2.40
2022-08-20T07:46:32.685Z,1.27
2022-08-20T07:49:00.657Z,1.37
2022-08-20T07:51:28.672Z,2.53
2022-08-20T07:53:58.262Z,2.33
2022-08-20T07:56:27.957Z,2.83
2022-08-20T07:58:58.920Z,4.63
2022-08-20T08:01:29.661Z,1.23
2022-08-20T08:03:59.196Z,3.50
2022-08-20T08:06:29.741Z,1.83
2022-08-20T08:09:01.189Z,7.30
2022-08-20T08:11:29.799Z,3.80
2022-08-20T08:13:57.793Z,2.43
2022-08-20T08:16:25.751Z,2.17
2022-08-20T08:18:56.342Z,2.53
2022-08-20T08:21:27.101Z,5.83
2022-08-20T08:23:55.109Z,3.10
2022-08-20T08:26:23.063Z,2.63
2022-08-20T08:28:51.431Z,2.53
2022-08-20T08:31:19.391Z,3.17
2022-08-20T08:33:47.772Z,2.53
2022-08-20T08:36:16.563Z,1.70
2022-08-20T08:38:46.461Z,4.27
2022-08-20T08:41:18.391Z,2.03
2022-08-20T08:43:48.093Z,3.67
2022-08-20T08:46:19.280Z,9.43
2022-08-20T08:48:48.976Z,4.07
2022-08-20T08:51:17.744Z,4.23
2022-08-20T08:53:48.617Z,4.60
2022-08-20T08:56:16.560Z,2.77
2022-08-20T08:58:44.957Z,2.57
2022-08-20T09:01:53.220Z,3.30
2022-08-20T09:04:02.824Z,5.03
2022-08-20T09:06:30.803Z,1.50
2022-08-20T09:09:01.699Z,1.60
2022-08-20T09:11:29.913Z,2.00
2022-08-20T09:13:58.557Z,1.57
2022-08-20T09:16:28.082Z,2.33
2022-08-20T09:19:05.338Z,3.23
2022-08-20T09:21:33.318Z,1.80
2022-08-20T09:24:02.627Z,1.73
2022-08-20T09:26:30.585Z,4.37
2022-08-20T09:28:58.603Z,2.40
2022-08-20T09:31:27.132Z,1.90
2022-08-20T09:33:55.611Z,1.30
2022-08-20T09:36:25.636Z,1.63
2022-08-20T09:38:59.919Z,2.70
2022-08-20T09:41:29.317Z,0.80
2022-08-20T09:43:57.270Z,1.67
2022-08-20T09:46:27.189Z,0.97
2022-08-20T09:48:55.560Z,1.93
2022-08-20T09:51:25.067Z,1.40
2022-08-20T09:53:52.981Z,1.90
2022-08-20T09:56:20.957Z,3.33
2022-08-20T09:58:51.362Z,3.00
2022-08-20T10:01:20.058Z,3.43
2022-08-20T10:03:49.378Z,0.83
2022-08-20T10:06:18.062Z,2.90
2022-08-20T10:08:45.988Z,3.30
2022-08-20T10:11:14.070Z,4.13
2022-08-20T10:13:42.214Z,1.27
2022-08-20T10:16:11.564Z,1.60
2022-08-20T10:18:39.509Z,3.20
2022-08-20T10:21:10.634Z,6.00
2022-08-20T10:23:38.567Z,2.30
2022-08-20T10:26:07.887Z,5.93
2022-08-20T10:28:35.995Z,8.27
2022-08-20T10:31:04.691Z,4.40
2022-08-20T10:33:35.508Z,4.87
2022-08-20T10:36:07.623Z,4.30
2022-08-20T10:38:35.588Z,4.30
2022-08-20T10:41:03.631Z,4.10
2022-08-20T10:43:31.942Z,2.40
2022-08-20T10:46:00.187Z,3.53
2022-08-20T10:48:28.270Z,4.50
2022-08-20T10:50:57.555Z,1.90
2022-08-20T10:53:25.527Z,0.90
2022-08-20T10:55:54.101Z,1.60
2022-08-20T10:58:23.853Z,3.27
2022-08-20T11:00:51.899Z,1.00
2022-08-20T11:03:19.952Z,1.13
2022-08-20T11:05:48.037Z,1.73
2022-08-20T11:08:29.834Z,4.23
2022-08-20T11:11:02.495Z,1.90
2022-08-20T11:13:30.409Z,0.40
2022-08-20T11:15:58.349Z,0.90
2022-08-20T11:18:26.325Z,4.43
2022-08-20T11:20:54.328Z,6.37
2022-08-20T11:23:23.892Z,0.70
2022-08-20T11:25:51.809Z,0.50
2022-08-20T11:28:31.001Z,0.57
2022-08-20T11:31:00.247Z,0.50
2022-08-20T11:33:28.303Z,1.40
2022-08-20T11:35:56.249Z,2.17
2022-08-20T11:38:25.619Z,1.80
2022-08-20T11:40:53.567Z,2.53
2022-08-20T11:43:21.554Z,3.13
2022-08-20T11:45:50.806Z,5.23
2022-08-20T11:48:18.933Z,0.70
2022-08-20T11:50:46.991Z,0.97
2022-08-20T11:53:15.119Z,4.00
2022-08-20T11:55:44.558Z,0.63
2022-08-20T11:58:12.514Z,0.50
2022-08-20T12:00:40.457Z,0.50
2022-08-20T12:03:10.148Z,4.20
2022-08-20T12:05:38.534Z,1.43
2022-08-20T12:08:06.758Z,2.70
2022-08-20T12:10:37.103Z,2.70
2022-08-20T12:13:07.760Z,1.73
2022-08-20T12:15:36.372Z,1.50
2022-08-20T12:18:07.377Z,3.00
2022-08-20T12:20:35.337Z,3.23
2022-08-20T12:23:03.517Z,1.20
2022-08-20T12:25:31.553Z,7.57
2022-08-20T12:28:00.692Z,2.80
2022-08-20T12:30:31.066Z,2.53
2022-08-20T12:32:59.398Z,2.77
2022-08-20T12:35:27.785Z,3.93
2022-08-20T12:37:55.725Z,1.50
2022-08-20T12:40:32.223Z,1.13
2022-08-20T12:43:01.075Z,2.00
2022-08-20T12:45:30.403Z,2.63
2022-08-20T12:48:02.146Z,2.80
2022-08-20T12:50:31.846Z,0.60
2022-08-20T12:53:00.322Z,4.00
2022-08-20T12:55:28.306Z,1.23
2022-08-20T12:57:59.474Z,1.53
2022-08-20T13:00:30.958Z,1.40
2022-08-20T13:03:00.910Z,0.40
2022-08-20T13:05:29.007Z,1.00
2022-08-20T13:07:57.094Z,2.43
2022-08-20T13:10:26.265Z,0.83
2022-08-20T13:12:54.266Z,1.80
2022-08-20T13:15:22.325Z,2.90
2022-08-20T13:17:53.667Z,1.30
2022-08-20T13:20:21.867Z,3.47
2022-08-20T13:22:49.927Z,7.57
2022-08-20T13:25:18.129Z,1.97
2022-08-20T13:27:46.120Z,2.03
2022-08-20T13:30:16.136Z,1.47
2022-08-20T13:32:44.080Z,1.40
2022-08-20T13:35:13.541Z,0.60
2022-08-20T13:37:41.724Z,2.57
2022-08-20T13:40:11.312Z,0.93
2022-08-20T13:42:39.727Z,1.07
2022-08-20T13:45:09.220Z,2.03
2022-08-20T13:47:40.160Z,2.13
2022-08-20T13:50:15.178Z,3.57
2022-08-20T13:52:44.628Z,4.00
2022-08-20T13:55:15.824Z,2.47
2022-08-20T13:57:45.815Z,0.83
2022-08-20T14:00:15.429Z,4.07
2022-08-20T14:02:43.833Z,2.50
2022-08-20T14:05:12.092Z,4.07
2022-08-20T14:07:45.331Z,1.43
2022-08-20T14:10:14.998Z,2.23
2022-08-20T14:12:42.954Z,2.03
2022-08-20T14:15:11.957Z,4.83
2022-08-20T14:17:40.696Z,5.30
2022-08-20T14:20:10.804Z,2.33
2022-08-20T14:22:38.765Z,4.10
2022-08-20T14:25:09.071Z,3.47
2022-08-20T14:27:37.078Z,0.83
2022-08-20T14:30:05.803Z,1.27
2022-08-20T14:32:33.766Z,2.30
2022-08-20T14:35:02.228Z,4.27
2022-08-20T14:37:31.365Z,4.63
2022-08-20T14:40:00.752Z,2.90
2022-08-20T14:42:30.490Z,2.43
2022-08-20T14:44:58.737Z,4.93
2022-08-20T14:47:29.326Z,2.30
2022-08-20T14:49:59.592Z,1.53
2022-08-20T14:52:27.656Z,2.27
2022-08-20T14:54:56.408Z,2.30
2022-08-20T14:57:24.408Z,1.33
2022-08-20T14:59:54.874Z,2.03
2022-08-20T15:02:23.452Z,2.07
2022-08-20T15:04:52.270Z,3.93
2022-08-20T15:07:24.114Z,1.87
2022-08-20T15:09:52.291Z,4.67
2022-08-20T15:12:20.252Z,1.50
2022-08-20T15:14:49.104Z,6.10
2022-08-20T15:17:20.905Z,2.53
2022-08-20T15:19:48.846Z,2.47
2022-08-20T15:22:16.887Z,1.17
2022-08-20T15:24:45.084Z,1.30
2022-08-20T15:27:17.053Z,3.10
2022-08-20T15:29:47.165Z,3.53
2022-08-20T15:32:15.096Z,1.70
2022-08-20T15:34:44.434Z,1.73
2022-08-20T15:37:13.112Z,0.73
2022-08-20T15:39:41.590Z,0.97
2022-08-20T15:42:09.700Z,1.40
2022-08-20T15:44:37.824Z,1.20
2022-08-20T15:47:20.344Z,2.20
2022-08-20T15:49:50.000Z,1.33
2022-08-20T15:52:18.397Z,1.17
2022-08-20T15:54:46.649Z,0.53
2022-08-20T15:57:17.406Z,1.67
2022-08-20T15:59:53.501Z,0.83
2022-08-20T16:02:29.980Z,1.87
2022-08-20T16:05:06.199Z,0.73
2022-08-20T16:07:37.857Z,2.07
2022-08-20T16:10:11.721Z,0.93
2022-08-20T16:12:43.006Z,1.17
2022-08-20T16:15:12.445Z,0.73
2022-08-20T16:17:41.629Z,0.83
2022-08-20T16:20:12.832Z,1.33
2022-08-20T16:22:43.174Z,1.03
2022-08-20T16:25:11.535Z,0.47
2022-08-20T16:27:46.634Z,1.13
2022-08-20T16:30:21.484Z,1.43
2022-08-20T16:32:53.923Z,3.93
2022-08-20T16:35:30.508Z,0.90
2022-08-20T16:38:07.788Z,3.60
2022-08-20T16:40:39.495Z,0.97
2022-08-20T16:43:08.314Z,1.50
2022-08-20T16:45:38.996Z,1.97
2022-08-20T16:48:11.460Z,1.83
2022-08-20T16:50:47.224Z,2.40
2022-08-20T16:53:17.819Z,2.57
2022-08-20T16:55:45.775Z,0.80
2022-08-20T16:58:13.705Z,2.03
2022-08-20T17:00:45.175Z,2.23
2022-08-20T17:03:31.333Z,2.53
2022-08-20T17:06:16.295Z,1.33
2022-08-20T17:08:49.773Z,3.37
2022-08-20T17:11:24.008Z,3.83
2022-08-20T17:13:51.963Z,1.57
2022-08-20T17:16:20.891Z,2.07
2022-08-20T17:18:49.770Z,1.93
2022-08-20T17:21:23.380Z,2.13
2022-08-20T17:23:56.348Z,0.80
2022-08-20T17:26:26.071Z,1.73
2022-08-20T17:28:55.929Z,0.70
2022-08-20T17:31:42.708Z,1.57
2022-08-20T17:34:14.969Z,2.77
2022-08-20T17:36:54.450Z,2.23
2022-08-20T17:39:23.129Z,2.93
2022-08-20T17:41:52.608Z,4.20
2022-08-20T17:44:23.373Z,2.77
2022-08-20T17:46:51.607Z,4.07
2022-08-20T17:49:21.604Z,3.90
2022-08-20T17:51:53.136Z,5.30
2022-08-20T17:54:24.827Z,7.33
2022-08-20T17:56:55.464Z,5.73
2022-08-20T18:00:00.385Z,3.33
2022-08-20T18:02:15.133Z,2.97
2022-08-20T18:04:43.240Z,4.03
2022-08-20T18:07:16.067Z,1.90
2022-08-20T18:09:47.122Z,2.97
2022-08-20T18:12:21.773Z,2.80
2022-08-20T18:15:05.096Z,3.60
2022-08-20T18:18:03.241Z,1.97
2022-08-20T18:20:51.047Z,2.57
2022-08-20T18:23:22.930Z,3.27
2022-08-20T18:25:52.822Z,1.77
2022-08-20T18:28:23.042Z,1.97
2022-08-20T18:30:52.055Z,1.93
2022-08-20T18:33:29.518Z,1.73
2022-08-20T18:36:09.157Z,2.13
2022-08-20T18:38:41.844Z,1.33
2022-08-20T18:41:12.587Z,1.03
2022-08-20T18:43:41.796Z,2.67
2022-08-20T18:46:11.549Z,0.93
2022-08-20T18:48:39.504Z,4.07
2022-08-20T18:51:10.072Z,2.00
2022-08-20T18:53:41.179Z,1.73
2022-08-20T18:56:10.059Z,2.10
2022-08-20T18:58:39.450Z,3.77
2022-08-20T19:01:13.227Z,2.07
2022-08-20T19:03:45.077Z,4.30
2022-08-20T19:06:22.488Z,2.23
2022-08-20T19:08:54.056Z,3.00
2022-08-20T19:11:58.552Z,3.47
2022-08-20T19:14:37.032Z,1.97
2022-08-20T19:17:06.889Z,2.50
2022-08-20T19:19:35.493Z,2.80
2022-08-20T19:22:03.470Z,2.90
2022-08-20T19:24:38.691Z,1.43
2022-08-20T19:27:10.291Z,1.10
2022-08-20T19:29:40.342Z,3.93
2022-08-20T19:32:09.517Z,1.10
2022-08-20T19:34:37.851Z,1.67
2022-08-20T19:37:27.614Z,2.13
2022-08-20T19:39:56.447Z,2.53
2022-08-20T19:42:25.409Z,2.40
2022-08-20T19:44:55.431Z,3.73
2022-08-20T19:47:30.210Z,4.80
2022-08-20T19:50:02.415Z,4.43
2022-08-20T19:52:40.041Z,4.50
2022-08-20T19:55:17.134Z,4.33
2022-08-20T19:57:51.231Z,2.93
2022-08-20T20:00:19.186Z,2.37
2022-08-20T20:02:47.290Z,3.47
2022-08-20T20:05:15.251Z,3.57
2022-08-20T20:07:44.426Z,1.90
2022-08-20T20:10:32.269Z,1.93
2022-08-20T20:13:08.081Z,2.63
2022-08-20T20:15:36.098Z,2.67
2022-08-20T20:18:04.357Z,4.33
2022-08-20T20:20:33.554Z,1.43
2022-08-20T20:23:06.654Z,4.67
2022-08-20T20:25:41.497Z,1.07
2022-08-20T20:28:12.138Z,2.23
2022-08-20T20:30:40.473Z,3.53
2022-08-20T20:33:14.657Z,1.40
2022-08-20T20:35:42.802Z,2.30
2022-08-20T20:38:11.685Z,2.27
2022-08-20T20:40:46.454Z,3.07
2022-08-20T20:43:24.354Z,1.43
2022-08-20T20:45:59.394Z,2.43
2022-08-20T20:48:34.009Z,29.13
2022-08-20T20:51:02.269Z,27.73
2022-08-20T20:53:53.149Z,26.93
2022-08-20T20:56:34.573Z,21.10
2022-08-20T20:59:06.476Z,15.87
2022-08-20T21:01:48.846Z,11.97
2022-08-20T21:04:19.797Z,8.60
2022-08-20T21:06:47.768Z,9.07
2022-08-20T21:09:15.731Z,12.70
2022-08-20T21:11:45.060Z,11.63
2022-08-20T21:14:13.081Z,9.37
2022-08-20T21:16:41.012Z,6.77
2022-08-20T21:19:09.969Z,5.27
2022-08-20T21:21:38.172Z,6.00
2022-08-20T21:24:07.292Z,6.83
2022-08-20T21:26:35.324Z,7.63
2022-08-20T21:29:05.115Z,3.07
2022-08-20T21:31:34.336Z,5.30
2022-08-20T21:34:02.311Z,4.00
2022-08-20T21:36:30.326Z,4.77
2022-08-20T21:38:58.349Z,3.13
2022-08-20T21:41:29.773Z,4.07
2022-08-20T21:43:58.597Z,2.03
2022-08-20T21:46:28.775Z,2.03
2022-08-20T21:48:56.957Z,2.53
2022-08-20T21:51:24.964Z,2.30
2022-08-20T21:53:53.050Z,2.83
2022-08-20T21:56:22.483Z,1.83
2022-08-20T21:58:50.615Z,3.53
2022-08-20T22:01:21.177Z,7.97
2022-08-20T22:03:51.918Z,6.10
2022-08-20T22:06:20.080Z,13.80
2022-08-20T22:08:48.033Z,12.67
2022-08-20T22:11:15.968Z,12.83
2022-08-20T22:13:43.964Z,9.70
2022-08-20T22:16:12.690Z,11.93
2022-08-20T22:18:40.600Z,5.87
2022-08-20T22:21:12.260Z,6.47
2022-08-20T22:23:40.496Z,8.90
2022-08-20T22:26:08.611Z,3.47
2022-08-20T22:28:36.669Z,5.53
2022-08-20T22:31:04.786Z,5.37
2022-08-20T22:33:32.955Z,3.90
2022-08-20T22:36:01.143Z,2.90
2022-08-20T22:38:30.608Z,3.60
2022-08-20T22:40:58.558Z,3.60
2022-08-20T22:43:26.515Z,4.97
2022-08-20T22:46:00.429Z,2.13
2022-08-20T22:48:28.465Z,3.57
2022-08-20T22:50:57.005Z,1.57
2022-08-20T22:53:25.594Z,2.10
2022-08-20T22:55:54.959Z,2.43
2022-08-20T22:58:30.427Z,3.03
2022-08-20T23:00:59.686Z,3.77
2022-08-20T23:03:39.675Z,1.37
2022-08-20T23:06:08.427Z,2.37
2022-08-20T23:08:36.611Z,3.57
2022-08-20T23:11:06.103Z,1.83
2022-08-20T23:13:34.075Z,2.27
2022-08-20T23:16:02.022Z,1.60
2022-08-20T23:18:30.015Z,1.70
2022-08-20T23:20:59.033Z,2.87
2022-08-20T23:23:27.152Z,3.37
2022-08-20T23:25:55.250Z,1.63
2022-08-20T23:28:25.159Z,1.10
2022-08-20T23:30:53.220Z,2.00
2022-08-20T23:33:21.260Z,4.03
2022-08-20T23:35:49.263Z,2.47
2022-08-20T23:38:17.274Z,3.60
2022-08-20T23:40:45.220Z,2.20
2022-08-20T23:43:13.174Z,4.83
2022-08-20T23:45:43.547Z,1.97
2022-08-20T23:48:11.655Z,1.60
2022-08-20T23:50:39.615Z,1.30
2022-08-20T23:53:07.550Z,2.00
2022-08-20T23:55:35.740Z,2.53
2022-08-20T23:58:03.671Z,2.80
